Station History

Weather Underground - logo

Station Historical Data
Daily Summary for June 15, 2018 Units:  English    Metric   Both
« Previous Day
Next Day »
Daily Weekly Monthly Yearly Custom
  High: Low: Average:
Temperature: 98.0 °F 61.7 °F 81.3 °F
Dew Point: 54.1 °F 34.9 °F 45.6 °F
Humidity: 63 % 15 % 31 %
Wind Speed: 5.8 mph 0.0 mph 1.3 mph
Wind Gust: 1.8 mph - -
Wind:- - SSW
Pressure: 29.70 in 29.56 in -
Precipitation: 0.00 in    
Historical Graphs
 
 
Tabular Data for June 15, 2018
Time Temperature Dew Point Pressure Wind Wind Speed Wind Gust Humidity Rainfall Rate (Hourly)
00:04 70.9 °F 44.7 °F 29.66 in Calm     39 % 0.00 in
00:09 70.5 °F 44.3 °F 29.66 in Calm     39 % 0.00 in
00:15 70.3 °F 44.2 °F 29.66 in Calm     39 % 0.00 in
00:19 70.1 °F 44.6 °F 29.67 in Calm     40 % 0.00 in
00:24 69.8 °F 45.0 °F 29.67 in Calm     41 % 0.00 in
00:29 69.6 °F 44.8 °F 29.67 in Calm     41 % 0.00 in
00:34 69.4 °F 44.0 °F 29.66 in Calm     40 % 0.00 in
00:39 69.5 °F 44.8 °F 29.66 in Calm     41 % 0.00 in
00:44 69.5 °F 44.8 °F 29.66 in Calm     41 % 0.00 in
00:49 69.2 °F 44.5 °F 29.66 in Calm     41 % 0.00 in
00:54 69.0 °F 45.6 °F 29.66 in Calm     43 % 0.00 in
00:59 68.7 °F 45.9 °F 29.66 in Calm     44 % 0.00 in
01:08 68.6 °F 46.4 °F 29.66 in Calm     45 % 0.00 in
01:24 67.9 °F 47.5 °F 29.66 in Calm     48 % 0.00 in
01:29 67.7 °F 48.4 °F 29.66 in Calm     50 % 0.00 in
01:34 67.5 °F 49.8 °F 29.66 in Calm     53 % 0.00 in
01:39 67.2 °F 49.5 °F 29.66 in Calm     53 % 0.00 in
01:44 66.9 °F 48.7 °F 29.66 in Calm     52 % 0.00 in
01:48 66.8 °F 47.0 °F 29.66 in Calm     49 % 0.00 in
04:04 64.0 °F 45.0 °F 29.65 in Calm     50 % 0.00 in
04:09 63.8 °F 44.8 °F 29.65 in Calm     50 % 0.00 in
04:14 63.6 °F 45.1 °F 29.65 in Calm     51 % 0.00 in
04:19 63.3 °F 45.4 °F 29.66 in Calm     52 % 0.00 in
04:24 63.0 °F 45.6 °F 29.66 in Calm     53 % 0.00 in
04:30 62.8 °F 47.3 °F 29.66 in Calm     57 % 0.00 in
04:34 62.8 °F 46.9 °F 29.66 in Calm     56 % 0.00 in
04:39 62.6 °F 44.7 °F 29.66 in Calm     52 % 0.00 in
04:44 62.6 °F 45.2 °F 29.66 in Calm     53 % 0.00 in
04:49 62.8 °F 45.4 °F 29.66 in Calm     53 % 0.00 in
04:54 62.8 °F 44.9 °F 29.66 in Calm     52 % 0.00 in
04:59 62.8 °F 44.4 °F 29.67 in Calm     51 % 0.00 in
05:05 62.9 °F 44.0 °F 29.67 in Calm     50 % 0.00 in
05:09 62.8 °F 43.9 °F 29.67 in Calm     50 % 0.00 in
05:14 62.8 °F 44.4 °F 29.67 in SE 1.2 mph   51 % 0.00 in
05:19 63.0 °F 44.6 °F 29.67 in Calm   0.1 mph 51 % 0.00 in
05:25 63.0 °F 45.1 °F 29.67 in Calm     52 % 0.00 in
05:29 62.8 °F 44.9 °F 29.67 in Calm     52 % 0.00 in
05:34 62.6 °F 44.2 °F 29.67 in Calm     51 % 0.00 in
05:40 62.8 °F 43.9 °F 29.67 in Calm     50 % 0.00 in
05:44 63.1 °F 43.6 °F 29.67 in Calm     49 % 0.00 in
05:49 63.2 °F 44.2 °F 29.67 in Calm     50 % 0.00 in
05:55 63.0 °F 45.1 °F 29.67 in Calm     52 % 0.00 in
05:59 62.6 °F 47.1 °F 29.68 in Calm     57 % 0.00 in
06:04 62.0 °F 47.5 °F 29.68 in Calm     59 % 0.00 in
06:09 61.7 °F 48.5 °F 29.68 in Calm     62 % 0.00 in
06:14 61.8 °F 48.6 °F 29.68 in Calm     62 % 0.00 in
06:19 61.9 °F 49.2 °F 29.69 in Calm     63 % 0.00 in
06:24 62.0 °F 49.3 °F 29.69 in Calm     63 % 0.00 in
06:29 62.2 °F 49.4 °F 29.69 in Calm     63 % 0.00 in
06:34 62.4 °F 48.3 °F 29.69 in Calm     60 % 0.00 in
06:39 63.0 °F 48.0 °F 29.69 in ESE 1.2 mph   58 % 0.00 in
06:44 64.6 °F 49.0 °F 29.69 in Calm     57 % 0.00 in
06:49 66.3 °F 49.6 °F 29.69 in Calm     55 % 0.00 in
06:54 67.9 °F 49.6 °F 29.69 in Calm     52 % 0.00 in
06:59 69.1 °F 49.1 °F 29.69 in Calm     49 % 0.00 in
07:04 69.6 °F 48.5 °F 29.69 in Calm     47 % 0.00 in
07:10 70.5 °F 48.7 °F 29.70 in Calm     46 % 0.00 in
07:14 71.1 °F 49.3 °F 29.70 in ESE 1.2 mph 0.4 mph 46 % 0.00 in
07:19 71.0 °F 49.7 °F 29.69 in ESE 1.2 mph 0.1 mph 47 % 0.00 in
07:24 71.1 °F 50.4 °F 29.69 in Calm     48 % 0.00 in
07:29 71.6 °F 49.1 °F 29.69 in SE 1.0 mph 0.2 mph 45 % 0.00 in
07:34 72.1 °F 49.0 °F 29.70 in ESE 1.2 mph   44 % 0.00 in
07:39 72.6 °F 48.8 °F 29.70 in SE 2.3 mph 0.2 mph 43 % 0.00 in
07:44 72.8 °F 47.7 °F 29.70 in SSW 2.3 mph 0.3 mph 41 % 0.00 in
07:49 73.2 °F 47.4 °F 29.70 in SE 2.3 mph 1.4 mph 40 % 0.00 in
07:54 73.6 °F 47.1 °F 29.70 in ESE 1.2 mph 0.3 mph 39 % 0.00 in
07:59 74.3 °F 47.0 °F 29.70 in South 1.2 mph 0.8 mph 38 % 0.00 in
08:05 74.9 °F 46.1 °F 29.70 in ESE 2.3 mph 0.3 mph 36 % 0.00 in
08:10 75.6 °F 45.2 °F 29.70 in SE 1.2 mph 0.2 mph 34 % 0.00 in
08:14 76.1 °F 44.1 °F 29.70 in ESE 1.2 mph 0.7 mph 32 % 0.00 in
08:19 76.8 °F 44.7 °F 29.70 in Calm     32 % 0.00 in
08:24 77.3 °F 45.1 °F 29.70 in SE 3.5 mph 0.7 mph 32 % 0.00 in
08:29 77.5 °F 46.9 °F 29.70 in SSW 1.2 mph   34 % 0.00 in
08:34 78.1 °F 45.0 °F 29.70 in ESE 2.3 mph 0.8 mph 31 % 0.00 in
08:39 78.7 °F 45.5 °F 29.70 in ESE 3.5 mph 1.6 mph 31 % 0.00 in
08:44 79.0 °F 44.9 °F 29.70 in ESE 2.3 mph 0.7 mph 30 % 0.00 in
08:49 79.6 °F 48.0 °F 29.70 in SSE 2.3 mph 0.8 mph 33 % 0.00 in
08:54 80.1 °F 45.9 °F 29.70 in South 3.5 mph 0.6 mph 30 % 0.00 in
08:59 80.5 °F 45.3 °F 29.70 in South 3.5 mph 1.4 mph 29 % 0.00 in
09:05 81.5 °F 47.1 °F 29.70 in South 2.3 mph 0.7 mph 30 % 0.00 in
09:09 82.0 °F 47.5 °F 29.70 in SE 3.0 mph 0.3 mph 30 % 0.00 in
09:14 82.5 °F 46.1 °F 29.70 in ESE 2.3 mph 0.2 mph 28 % 0.00 in
09:19 82.9 °F 45.5 °F 29.70 in ESE 3.5 mph 1.6 mph 27 % 0.00 in
09:25 83.5 °F 45.0 °F 29.70 in ESE 3.5 mph 1.3 mph 26 % 0.00 in
09:29 84.0 °F 46.4 °F 29.70 in SSE 2.3 mph 0.3 mph 27 % 0.00 in
09:34 84.5 °F 45.8 °F 29.70 in SSE 1.2 mph 0.9 mph 26 % 0.00 in
09:39 85.2 °F 46.4 °F 29.70 in SSE 1.0 mph 0.5 mph 26 % 0.00 in
09:44 85.9 °F 46.0 °F 29.70 in SSE 2.3 mph 0.3 mph 25 % 0.00 in
09:49 86.3 °F 46.3 °F 29.70 in SE 2.3 mph 0.3 mph 25 % 0.00 in
09:55 86.7 °F 42.1 °F 29.70 in NNW 2.3 mph 1.3 mph 21 % 0.00 in
09:59 86.6 °F 39.4 °F 29.70 in ENE 2.3 mph 0.4 mph 19 % 0.00 in
10:04 86.4 °F 34.9 °F 29.69 in NNE 2.3 mph   16 % 0.00 in
10:09 86.6 °F 38.0 °F 29.69 in NNW 2.3 mph 0.8 mph 18 % 0.00 in
10:14 86.7 °F 44.5 °F 29.69 in NW 1.2 mph 0.3 mph 23 % 0.00 in
10:19 86.7 °F 44.5 °F 29.69 in SE 2.3 mph 0.7 mph 23 % 0.00 in
10:24 86.3 °F 45.3 °F 29.69 in West 2.3 mph 0.2 mph 24 % 0.00 in
10:29 86.3 °F 43.0 °F 29.69 in West 3.5 mph 1.6 mph 22 % 0.00 in
10:34 86.5 °F 44.3 °F 29.69 in NNW 1.2 mph 0.7 mph 23 % 0.00 in
10:40 86.8 °F 45.7 °F 29.69 in West 2.3 mph 1.0 mph 24 % 0.00 in
10:44 87.2 °F 46.0 °F 29.69 in NNW 1.2 mph 0.3 mph 24 % 0.00 in
10:49 87.7 °F 45.3 °F 29.69 in WNW 2.3 mph 0.4 mph 23 % 0.00 in
10:54 87.9 °F 48.7 °F 29.70 in SE 3.5 mph 0.6 mph 26 % 0.00 in
10:59 88.4 °F 49.2 °F 29.69 in NW 2.3 mph 0.3 mph 26 % 0.00 in
11:04 88.5 °F 48.2 °F 29.69 in NNW 2.3 mph 0.2 mph 25 % 0.00 in
11:09 88.5 °F 50.3 °F 29.69 in NW 1.2 mph   27 % 0.00 in
11:14 88.6 °F 48.3 °F 29.69 in West 2.3 mph 0.4 mph 25 % 0.00 in
11:19 89.0 °F 53.5 °F 29.69 in North 2.3 mph 1.1 mph 30 % 0.00 in
11:24 89.0 °F 49.7 °F 29.69 in ENE 2.3 mph 0.8 mph 26 % 0.00 in
11:29 89.3 °F 48.9 °F 29.69 in WNW 1.2 mph 1.3 mph 25 % 0.00 in
11:35 89.7 °F 54.1 °F 29.69 in West 2.3 mph 0.5 mph 30 % 0.00 in
11:39 89.7 °F 48.1 °F 29.69 in SSE 2.3 mph 1.5 mph 24 % 0.00 in
11:44 89.9 °F 50.4 °F 29.69 in WSW 2.3 mph 1.4 mph 26 % 0.00 in
11:49 89.9 °F 50.4 °F 29.69 in NNW 1.2 mph 0.6 mph 26 % 0.00 in
11:54 90.2 °F 49.6 °F 29.68 in NW 3.5 mph 1.2 mph 25 % 0.00 in
11:58 90.3 °F 50.8 °F 29.68 in NNE 2.3 mph 0.4 mph 26 % 0.00 in
12:04 90.9 °F 50.2 °F 29.68 in ENE 2.3 mph 0.4 mph 25 % 0.00 in
12:09 91.4 °F 53.7 °F 29.68 in NW 2.3 mph 0.6 mph 28 % 0.00 in
12:14 91.1 °F 50.4 °F 29.68 in NE 3.5 mph 0.9 mph 25 % 0.00 in
12:19 91.5 °F 48.5 °F 29.68 in WNW 2.3 mph 0.8 mph 23 % 0.00 in
12:22 91.5 °F 48.5 °F 29.68 in NW 4.0 mph 1.4 mph 23 % 0.00 in
12:29 91.8 °F 48.7 °F 29.68 in ENE 1.2 mph 0.1 mph 23 % 0.00 in
12:35 91.8 °F 49.9 °F 29.68 in WSW 2.3 mph 0.4 mph 24 % 0.00 in
12:39 92.4 °F 49.2 °F 29.68 in NNW 2.3 mph 0.6 mph 23 % 0.00 in
12:44 92.1 °F 51.2 °F 29.67 in East 2.3 mph 1.5 mph 25 % 0.00 in
12:49 92.5 °F 49.3 °F 29.67 in NW 3.5 mph 1.3 mph 23 % 0.00 in
12:53 92.2 °F 49.1 °F 29.67 in WNW 4.0 mph 1.6 mph 23 % 0.00 in
12:59 92.7 °F 50.6 °F 29.67 in NW 2.3 mph 1.0 mph 24 % 0.00 in
13:04 92.7 °F 51.7 °F 29.67 in NW 3.5 mph 1.0 mph 25 % 0.00 in
13:09 92.9 °F 47.2 °F 29.67 in WNW 3.5 mph 1.0 mph 21 % 0.00 in
13:14 93.2 °F 49.9 °F 29.67 in WNW 2.3 mph 1.4 mph 23 % 0.00 in
13:19 92.8 °F 50.7 °F 29.66 in NW 1.2 mph   24 % 0.00 in
13:24 92.7 °F 48.3 °F 29.66 in NW 3.5 mph 1.5 mph 22 % 0.00 in
13:29 92.5 °F 50.5 °F 29.66 in NE 3.5 mph 0.6 mph 24 % 0.00 in
13:34 93.1 °F 48.6 °F 29.66 in NW 3.5 mph 1.3 mph 22 % 0.00 in
13:39 92.9 °F 49.6 °F 29.66 in WNW 2.3 mph 1.2 mph 23 % 0.00 in
13:44 93.4 °F 48.9 °F 29.66 in WNW 3.5 mph 1.4 mph 22 % 0.00 in
13:49 94.2 °F 47.0 °F 29.65 in ENE 2.3 mph 0.6 mph 20 % 0.00 in
13:54 94.3 °F 48.4 °F 29.65 in West 1.2 mph 0.4 mph 21 % 0.00 in
13:59 94.1 °F 48.2 °F 29.65 in WSW 2.3 mph 0.7 mph 21 % 0.00 in
14:05 93.7 °F 49.1 °F 29.65 in SE 2.3 mph 1.0 mph 22 % 0.00 in
14:09 94.3 °F 47.1 °F 29.65 in NW 2.3 mph 1.4 mph 20 % 0.00 in
14:15 94.8 °F 46.1 °F 29.65 in NNW 2.3 mph 1.4 mph 19 % 0.00 in
14:19 95.5 °F 51.8 °F 29.64 in SSW 2.3 mph 0.3 mph 23 % 0.00 in
14:24 95.8 °F 49.6 °F 29.64 in ENE 3.5 mph 0.8 mph 21 % 0.00 in
14:29 95.7 °F 48.2 °F 29.64 in North 2.3 mph 1.0 mph 20 % 0.00 in
14:34 95.8 °F 49.6 °F 29.64 in ENE 5.8 mph 1.8 mph 21 % 0.00 in
14:39 95.2 °F 46.4 °F 29.63 in WNW 2.3 mph 1.7 mph 19 % 0.00 in
14:45 94.4 °F 47.1 °F 29.63 in NW 1.2 mph 0.1 mph 20 % 0.00 in
14:49 94.9 °F 50.1 °F 29.63 in NE 1.0 mph 0.3 mph 22 % 0.00 in
14:55 96.0 °F 51.0 °F 29.62 in South 1.2 mph 0.6 mph 22 % 0.00 in
14:59 96.4 °F 50.1 °F 29.62 in North 3.5 mph 1.6 mph 21 % 0.00 in
15:04 96.7 °F 49.0 °F 29.62 in SW 1.2 mph 0.3 mph 20 % 0.00 in
15:09 97.0 °F 49.3 °F 29.62 in NW 2.3 mph 0.3 mph 20 % 0.00 in
15:14 96.5 °F 46.1 °F 29.62 in WNW 2.3 mph 0.9 mph 18 % 0.00 in
15:19 96.3 °F 47.3 °F 29.61 in WNW 2.0 mph 1.7 mph 19 % 0.00 in
15:24 95.8 °F 48.3 °F 29.61 in North 3.5 mph 1.4 mph 20 % 0.00 in
15:30 96.1 °F 47.2 °F 29.61 in NW 2.3 mph 0.6 mph 19 % 0.00 in
15:34 96.3 °F 47.3 °F 29.61 in North 2.3 mph 0.9 mph 19 % 0.00 in
15:39 96.5 °F 44.6 °F 29.61 in NNE 2.3 mph 0.2 mph 17 % 0.00 in
15:45 96.4 °F 46.0 °F 29.61 in NNW 2.3 mph 1.0 mph 18 % 0.00 in
15:49 96.0 °F 47.1 °F 29.60 in WNW 2.3 mph 0.1 mph 19 % 0.00 in
15:54 96.3 °F 47.3 °F 29.60 in WSW 1.2 mph   19 % 0.00 in
15:59 96.6 °F 49.0 °F 29.60 in WNW 2.3 mph 0.6 mph 20 % 0.00 in
16:04 96.6 °F 49.0 °F 29.60 in SSW 3.5 mph 0.8 mph 20 % 0.00 in
16:10 97.0 °F 47.9 °F 29.60 in SE 1.2 mph 0.4 mph 19 % 0.00 in
16:14 97.3 °F 46.7 °F 29.60 in North 2.3 mph 1.4 mph 18 % 0.00 in
16:19 97.6 °F 49.8 °F 29.60 in SE 3.5 mph 0.1 mph 20 % 0.00 in
16:24 97.9 °F 48.6 °F 29.59 in East 2.3 mph 0.5 mph 19 % 0.00 in
16:29 98.0 °F 47.3 °F 29.59 in NNW 2.3 mph 0.1 mph 18 % 0.00 in
16:34 97.4 °F 45.3 °F 29.59 in North 2.3 mph 0.1 mph 17 % 0.00 in
16:39 97.2 °F 46.6 °F 29.59 in NE 1.2 mph 0.5 mph 18 % 0.00 in
16:45 97.3 °F 45.2 °F 29.59 in NW 3.5 mph 1.1 mph 17 % 0.00 in
16:50 97.2 °F 41.8 °F 29.58 in WNW 1.2 mph 0.4 mph 15 % 0.00 in
16:54 97.0 °F 43.4 °F 29.58 in WNW 2.0 mph 0.3 mph 16 % 0.00 in
16:59 97.3 °F 45.2 °F 29.58 in North 1.2 mph 0.7 mph 17 % 0.00 in
17:04 97.6 °F 45.4 °F 29.58 in West 2.3 mph 0.4 mph 17 % 0.00 in
17:09 97.5 °F 46.9 °F 29.58 in WNW 3.5 mph 0.3 mph 18 % 0.00 in
17:14 97.3 °F 43.6 °F 29.58 in NNW 2.0 mph 1.0 mph 16 % 0.00 in
17:19 96.9 °F 44.9 °F 29.58 in North 1.2 mph 0.1 mph 17 % 0.00 in
17:24 96.5 °F 46.1 °F 29.57 in WSW 2.3 mph 1.0 mph 18 % 0.00 in
17:29 96.5 °F 46.1 °F 29.57 in WNW 1.2 mph 0.4 mph 18 % 0.00 in
17:35 96.5 °F 44.6 °F 29.57 in SE 1.2 mph 0.5 mph 17 % 0.00 in
17:39 96.4 °F 44.5 °F 29.57 in ENE 1.2 mph 0.2 mph 17 % 0.00 in
17:44 96.3 °F 44.4 °F 29.57 in East 1.2 mph 0.7 mph 17 % 0.00 in
17:49 96.0 °F 45.7 °F 29.57 in WNW 2.0 mph 0.3 mph 18 % 0.00 in
17:54 96.0 °F 44.2 °F 29.57 in NNW 1.2 mph   17 % 0.00 in
17:59 95.9 °F 45.6 °F 29.57 in Calm     18 % 0.00 in
18:04 96.1 °F 42.6 °F 29.57 in West 2.3 mph 1.0 mph 16 % 0.00 in
18:09 95.8 °F 44.0 °F 29.57 in Calm   0.4 mph 17 % 0.00 in
18:15 95.7 °F 45.4 °F 29.57 in Calm     18 % 0.00 in
18:19 95.7 °F 43.9 °F 29.57 in East 1.2 mph 0.1 mph 17 % 0.00 in
18:24 95.9 °F 44.1 °F 29.57 in North 1.2 mph   17 % 0.00 in
18:29 95.4 °F 40.4 °F 29.57 in SSE 1.2 mph 0.2 mph 15 % 0.00 in
18:35 95.1 °F 40.2 °F 29.57 in SSE 2.3 mph 0.3 mph 15 % 0.00 in
18:39 94.9 °F 41.7 °F 29.57 in Calm   0.2 mph 16 % 0.00 in
18:44 94.7 °F 41.5 °F 29.56 in SSE 1.2 mph 0.2 mph 16 % 0.00 in
18:50 94.5 °F 42.9 °F 29.56 in Calm     17 % 0.00 in
18:54 94.3 °F 41.2 °F 29.56 in Calm     16 % 0.00 in
18:59 93.4 °F 40.5 °F 29.57 in SSE 2.3 mph 0.4 mph 16 % 0.00 in
19:05 92.4 °F 42.7 °F 29.57 in Calm     18 % 0.00 in
19:09 91.6 °F 42.1 °F 29.57 in Calm     18 % 0.00 in
19:15 91.2 °F 41.8 °F 29.57 in Calm     18 % 0.00 in
19:19 90.5 °F 41.2 °F 29.57 in SSE 2.3 mph 0.3 mph 18 % 0.00 in
19:24 89.6 °F 43.2 °F 29.57 in Calm     20 % 0.00 in
19:29 88.6 °F 44.9 °F 29.57 in Calm     22 % 0.00 in
19:34 87.7 °F 46.4 °F 29.57 in Calm     24 % 0.00 in
19:39 86.6 °F 47.6 °F 29.57 in Calm     26 % 0.00 in
19:44 85.5 °F 46.7 °F 29.57 in Calm   0.1 mph 26 % 0.00 in
19:49 84.7 °F 46.0 °F 29.57 in NW 1.2 mph   26 % 0.00 in
19:54 83.9 °F 45.3 °F 29.57 in SE 1.2 mph   26 % 0.00 in
19:59 83.1 °F 45.7 °F 29.58 in ESE 1.2 mph   27 % 0.00 in
20:04 82.4 °F 46.0 °F 29.58 in Calm   0.1 mph 28 % 0.00 in
20:09 81.5 °F 46.2 °F 29.58 in Calm     29 % 0.00 in
20:14 80.7 °F 46.4 °F 29.58 in Calm     30 % 0.00 in
20:19 80.0 °F 45.8 °F 29.58 in Calm     30 % 0.00 in
20:25 79.2 °F 45.1 °F 29.58 in NE 1.2 mph 0.2 mph 30 % 0.00 in
20:29 78.7 °F 41.9 °F 29.58 in SE 1.2 mph 0.1 mph 27 % 0.00 in
20:34 78.2 °F 41.5 °F 29.59 in Calm     27 % 0.00 in
20:40 77.6 °F 41.9 °F 29.59 in ESE 1.2 mph   28 % 0.00 in
20:44 77.6 °F 42.8 °F 29.59 in ESE 1.2 mph   29 % 0.00 in
20:49 77.3 °F 42.6 °F 29.59 in SE 1.2 mph 0.1 mph 29 % 0.00 in
20:55 76.5 °F 41.9 °F 29.59 in SE 1.2 mph   29 % 0.00 in
20:59 75.8 °F 41.3 °F 29.59 in SE 1.2 mph   29 % 0.00 in
21:04 75.3 °F 41.7 °F 29.59 in SE 1.2 mph   30 % 0.00 in
21:09 74.8 °F 42.1 °F 29.59 in SE 1.2 mph   31 % 0.00 in
21:14 74.4 °F 40.1 °F 29.60 in Calm     29 % 0.00 in
21:19 74.3 °F 40.0 °F 29.60 in ESE 1.2 mph   29 % 0.00 in
21:24 74.3 °F 40.0 °F 29.60 in ESE 1.2 mph   29 % 0.00 in
21:29 74.3 °F 40.0 °F 29.61 in SE 1.2 mph 0.1 mph 29 % 0.00 in
21:34 73.9 °F 40.5 °F 29.61 in Calm     30 % 0.00 in
21:39 73.1 °F 39.8 °F 29.61 in SE 1.2 mph   30 % 0.00 in
21:45 72.6 °F 38.5 °F 29.61 in ESE 1.2 mph 0.1 mph 29 % 0.00 in
21:49 72.7 °F 38.6 °F 29.62 in ESE 2.3 mph 0.2 mph 29 % 0.00 in
21:55 72.6 °F 39.4 °F 29.62 in ENE 1.2 mph 0.1 mph 30 % 0.00 in
22:00 72.4 °F 39.2 °F 29.62 in SE 2.3 mph 0.5 mph 30 % 0.00 in
22:04 72.2 °F 39.0 °F 29.62 in Calm     30 % 0.00 in
22:09 72.1 °F 38.9 °F 29.62 in Calm     30 % 0.00 in
22:14 71.8 °F 39.5 °F 29.62 in Calm     31 % 0.00 in
22:20 71.5 °F 39.3 °F 29.62 in Calm     31 % 0.00 in
22:25 71.3 °F 39.1 °F 29.62 in Calm     31 % 0.00 in
22:29 71.0 °F 39.6 °F 29.61 in Calm     32 % 0.00 in
22:35 70.7 °F 39.4 °F 29.61 in Calm     32 % 0.00 in
22:39 70.4 °F 39.9 °F 29.61 in Calm     33 % 0.00 in
22:44 70.2 °F 38.9 °F 29.62 in Calm     32 % 0.00 in
22:50 70.1 °F 39.6 °F 29.62 in Calm     33 % 0.00 in
22:54 69.8 °F 40.2 °F 29.62 in Calm     34 % 0.00 in
22:59 69.7 °F 40.1 °F 29.62 in SE 1.2 mph 0.1 mph 34 % 0.00 in
23:04 69.6 °F 40.0 °F 29.62 in Calm     34 % 0.00 in
23:09 69.3 °F 40.5 °F 29.62 in SE 1.2 mph   35 % 0.00 in
23:14 68.8 °F 40.7 °F 29.62 in SE 1.2 mph   36 % 0.00 in
23:19 68.4 °F 41.1 °F 29.62 in SE 1.2 mph   37 % 0.00 in
23:24 68.1 °F 41.5 °F 29.62 in SE 1.2 mph   38 % 0.00 in
23:29 67.9 °F 42.0 °F 29.62 in Calm     39 % 0.00 in
23:34 67.5 °F 41.7 °F 29.63 in Calm     39 % 0.00 in
23:40 67.1 °F 40.6 °F 29.62 in Calm     38 % 0.00 in
23:44 67.1 °F 41.3 °F 29.62 in Calm     39 % 0.00 in
23:49 67.0 °F 41.2 °F 29.63 in Calm     39 % 0.00 in
23:54 66.8 °F 41.7 °F 29.63 in Calm     40 % 0.00 in
23:59 66.5 °F 42.7 °F 29.63 in Calm     42 % 0.00 in
Park Place, Exeter, Tulare County, California, USA
Compliments of Weather Underground - 2.5 mb